sensor_id;sensor_type;location;lat;lon;timestamp;temperature;humidity
23403;DHT22;11874;48.228;11.684;2023-11-21T00:01:22;9.80;99.90
23403;DHT22;11874;48.228;11.684;2023-11-21T00:03:51;9.80;99.90
23403;DHT22;11874;48.228;11.684;2023-11-21T00:06:23;9.80;99.90
23403;DHT22;11874;48.228;11.684;2023-11-21T00:08:50;9.90;99.90
23403;DHT22;11874;48.228;11.684;2023-11-21T00:11:19;9.90;99.90
23403;DHT22;11874;48.228;11.684;2023-11-21T00:13:47;9.80;99.90
23403;DHT22;11874;48.228;11.684;2023-11-21T00:16:17;9.80;99.90
23403;DHT22;11874;48.228;11.684;2023-11-21T00:18:45;9.80;99.90
23403;DHT22;11874;48.228;11.684;2023-11-21T00:21:18;9.90;99.90
23403;DHT22;11874;48.228;11.684;2023-11-21T00:23:48;9.80;99.90
23403;DHT22;11874;48.228;11.684;2023-11-21T00:26:16;9.80;99.90
23403;DHT22;11874;48.228;11.684;2023-11-21T00:28:44;9.80;99.90
23403;DHT22;11874;48.228;11.684;2023-11-21T00:31:13;9.80;99.90
23403;DHT22;11874;48.228;11.684;2023-11-21T00:33:41;9.80;99.90
23403;DHT22;11874;48.228;11.684;2023-11-21T00:36:10;9.70;99.90
23403;DHT22;11874;48.228;11.684;2023-11-21T00:38:38;9.80;99.90
23403;DHT22;11874;48.228;11.684;2023-11-21T00:41:10;9.70;99.90
23403;DHT22;11874;48.228;11.684;2023-11-21T00:43:37;9.70;99.90
23403;DHT22;11874;48.228;11.684;2023-11-21T00:46:07;9.70;99.90
23403;DHT22;11874;48.228;11.684;2023-11-21T00:48:35;9.70;99.90
23403;DHT22;11874;48.228;11.684;2023-11-21T00:51:04;9.70;99.90
23403;DHT22;11874;48.228;11.684;2023-11-21T00:53:33;9.70;99.90
23403;DHT22;11874;48.228;11.684;2023-11-21T00:56:02;9.70;99.90
23403;DHT22;11874;48.228;11.684;2023-11-21T00:58:34;9.70;99.90
23403;DHT22;11874;48.228;11.684;2023-11-21T01:01:02;9.60;99.90
23403;DHT22;11874;48.228;11.684;2023-11-21T01:03:31;9.70;99.90
23403;DHT22;11874;48.228;11.684;2023-11-21T01:05:59;9.70;99.90
23403;DHT22;11874;48.228;11.684;2023-11-21T01:08:27;9.70;99.90
23403;DHT22;11874;48.228;11.684;2023-11-21T01:10:55;9.70;99.90
23403;DHT22;11874;48.228;11.684;2023-11-21T01:13:24;9.70;99.90
23403;DHT22;11874;48.228;11.684;2023-11-21T01:15:56;9.70;99.90
23403;DHT22;11874;48.228;11.684;2023-11-21T01:18:26;9.80;99.90
23403;DHT22;11874;48.228;11.684;2023-11-21T01:20:56;9.90;99.90
23403;DHT22;11874;48.228;11.684;2023-11-21T01:23:24;9.80;99.90
23403;DHT22;11874;48.228;11.684;2023-11-21T01:25:52;9.80;99.90
23403;DHT22;11874;48.228;11.684;2023-11-21T01:28:20;9.90;99.90
23403;DHT22;11874;48.228;11.684;2023-11-21T01:30:48;9.90;99.90
23403;DHT22;11874;48.228;11.684;2023-11-21T01:33:18;9.80;99.90
23403;DHT22;11874;48.228;11.684;2023-11-21T01:35:46;9.90;99.90
23403;DHT22;11874;48.228;11.684;2023-11-21T01:38:15;9.80;99.90
23403;DHT22;11874;48.228;11.684;2023-11-21T01:40:44;9.90;99.90
23403;DHT22;11874;48.228;11.684;2023-11-21T01:43:14;9.90;99.90
23403;DHT22;11874;48.228;11.684;2023-11-21T01:45:42;9.90;99.90
23403;DHT22;11874;48.228;11.684;2023-11-21T01:48:13;9.90;99.90
23403;DHT22;11874;48.228;11.684;2023-11-21T01:50:45;9.90;99.90
23403;DHT22;11874;48.228;11.684;2023-11-21T01:53:13;9.90;99.90
23403;DHT22;11874;48.228;11.684;2023-11-21T01:55:42;9.90;99.90
23403;DHT22;11874;48.228;11.684;2023-11-21T01:58:10;9.90;99.90
23403;DHT22;11874;48.228;11.684;2023-11-21T02:00:40;9.90;99.90
23403;DHT22;11874;48.228;11.684;2023-11-21T02:03:08;9.90;99.90
23403;DHT22;11874;48.228;11.684;2023-11-21T02:05:37;9.90;99.90
23403;DHT22;11874;48.228;11.684;2023-11-21T02:08:07;9.90;99.90
23403;DHT22;11874;48.228;11.684;2023-11-21T02:10:36;9.90;99.90
23403;DHT22;11874;48.228;11.684;2023-11-21T02:13:05;9.90;99.90
23403;DHT22;11874;48.228;11.684;2023-11-21T02:15:33;9.90;99.90
23403;DHT22;11874;48.228;11.684;2023-11-21T02:18:01;9.90;99.90
23403;DHT22;11874;48.228;11.684;2023-11-21T02:20:30;10.00;99.90
23403;DHT22;11874;48.228;11.684;2023-11-21T02:23:03;9.90;99.90
23403;DHT22;11874;48.228;11.684;2023-11-21T02:25:32;9.90;99.90
23403;DHT22;11874;48.228;11.684;2023-11-21T02:28:02;9.90;99.90
23403;DHT22;11874;48.228;11.684;2023-11-21T02:30:32;9.90;99.90
23403;DHT22;11874;48.228;11.684;2023-11-21T02:33:00;9.80;99.90
23403;DHT22;11874;48.228;11.684;2023-11-21T02:35:29;9.80;99.90
23403;DHT22;11874;48.228;11.684;2023-11-21T02:37:59;9.80;99.90
23403;DHT22;11874;48.228;11.684;2023-11-21T02:40:29;9.70;99.90
23403;DHT22;11874;48.228;11.684;2023-11-21T02:42:57;9.70;99.90
23403;DHT22;11874;48.228;11.684;2023-11-21T02:45:26;9.70;99.90
23403;DHT22;11874;48.228;11.684;2023-11-21T02:47:55;9.70;99.90
23403;DHT22;11874;48.228;11.684;2023-11-21T02:50:26;9.70;99.90
23403;DHT22;11874;48.228;11.684;2023-11-21T02:52:56;9.70;99.90
23403;DHT22;11874;48.228;11.684;2023-11-21T02:55:28;9.60;99.90
23403;DHT22;11874;48.228;11.684;2023-11-21T02:57:57;9.60;99.90
23403;DHT22;11874;48.228;11.684;2023-11-21T03:00:25;9.60;99.90
23403;DHT22;11874;48.228;11.684;2023-11-21T03:02:55;9.60;99.90
23403;DHT22;11874;48.228;11.684;2023-11-21T03:05:24;9.60;99.90
23403;DHT22;11874;48.228;11.684;2023-11-21T03:07:54;9.60;99.90
23403;DHT22;11874;48.228;11.684;2023-11-21T03:10:23;9.60;99.90
23403;DHT22;11874;48.228;11.684;2023-11-21T03:12:53;9.60;99.90
23403;DHT22;11874;48.228;11.684;2023-11-21T03:15:21;9.60;99.90
23403;DHT22;11874;48.228;11.684;2023-11-21T03:17:51;9.60;99.90
23403;DHT22;11874;48.228;11.684;2023-11-21T03:20:27;9.60;99.90
23403;DHT22;11874;48.228;11.684;2023-11-21T03:22:55;9.60;99.90
23403;DHT22;11874;48.228;11.684;2023-11-21T03:25:23;9.60;99.90
23403;DHT22;11874;48.228;11.684;2023-11-21T03:27:53;9.60;99.90
23403;DHT22;11874;48.228;11.684;2023-11-21T03:30:22;9.60;99.90
23403;DHT22;11874;48.228;11.684;2023-11-21T03:32:50;9.60;99.90
23403;DHT22;11874;48.228;11.684;2023-11-21T03:35:19;9.60;99.90
23403;DHT22;11874;48.228;11.684;2023-11-21T03:37:49;9.70;99.90
23403;DHT22;11874;48.228;11.684;2023-11-21T03:40:17;9.70;99.90
23403;DHT22;11874;48.228;11.684;2023-11-21T03:42:45;9.60;99.90
23403;DHT22;11874;48.228;11.684;2023-11-21T03:45:18;9.60;99.90
23403;DHT22;11874;48.228;11.684;2023-11-21T03:47:46;9.70;99.90
23403;DHT22;11874;48.228;11.684;2023-11-21T03:50:14;9.60;99.90
23403;DHT22;11874;48.228;11.684;2023-11-21T03:52:44;9.60;99.90
23403;DHT22;11874;48.228;11.684;2023-11-21T03:55:12;9.60;99.90
23403;DHT22;11874;48.228;11.684;2023-11-21T03:57:42;9.60;99.90
23403;DHT22;11874;48.228;11.684;2023-11-21T04:00:11;9.60;99.90
23403;DHT22;11874;48.228;11.684;2023-11-21T04:02:41;9.60;99.90
23403;DHT22;11874;48.228;11.684;2023-11-21T04:05:09;9.60;99.90
23403;DHT22;11874;48.228;11.684;2023-11-21T04:07:38;9.60;99.90
23403;DHT22;11874;48.228;11.684;2023-11-21T04:10:08;9.60;99.90
23403;DHT22;11874;48.228;11.684;2023-11-21T04:12:39;9.60;99.90
23403;DHT22;11874;48.228;11.684;2023-11-21T04:15:08;9.60;99.90
23403;DHT22;11874;48.228;11.684;2023-11-21T04:17:37;9.60;99.90
23403;DHT22;11874;48.228;11.684;2023-11-21T04:20:09;9.60;99.90
23403;DHT22;11874;48.228;11.684;2023-11-21T04:22:39;9.60;99.90
23403;DHT22;11874;48.228;11.684;2023-11-21T04:25:13;9.60;99.90
23403;DHT22;11874;48.228;11.684;2023-11-21T04:27:42;9.60;99.90
23403;DHT22;11874;48.228;11.684;2023-11-21T04:30:13;9.60;99.90
23403;DHT22;11874;48.228;11.684;2023-11-21T04:32:41;9.60;99.90
23403;DHT22;11874;48.228;11.684;2023-11-21T04:35:11;9.50;99.90
23403;DHT22;11874;48.228;11.684;2023-11-21T04:37:40;9.50;99.90
23403;DHT22;11874;48.228;11.684;2023-11-21T04:40:09;9.50;99.90
23403;DHT22;11874;48.228;11.684;2023-11-21T04:42:37;9.50;99.90
23403;DHT22;11874;48.228;11.684;2023-11-21T04:45:06;9.50;99.90
23403;DHT22;11874;48.228;11.684;2023-11-21T04:47:36;9.50;99.90
23403;DHT22;11874;48.228;11.684;2023-11-21T04:50:05;9.50;99.90
23403;DHT22;11874;48.228;11.684;2023-11-21T04:52:35;9.40;99.90
23403;DHT22;11874;48.228;11.684;2023-11-21T04:55:05;9.40;99.90
23403;DHT22;11874;48.228;11.684;2023-11-21T04:57:33;9.40;99.90
23403;DHT22;11874;48.228;11.684;2023-11-21T05:00:02;9.40;99.90
23403;DHT22;11874;48.228;11.684;2023-11-21T05:02:32;9.40;99.90
23403;DHT22;11874;48.228;11.684;2023-11-21T05:05:02;9.40;99.90
23403;DHT22;11874;48.228;11.684;2023-11-21T05:07:35;9.40;99.90
23403;DHT22;11874;48.228;11.684;2023-11-21T05:10:04;9.40;99.90
23403;DHT22;11874;48.228;11.684;2023-11-21T05:12:35;9.40;99.90
23403;DHT22;11874;48.228;11.684;2023-11-21T05:15:07;9.40;99.90
23403;DHT22;11874;48.228;11.684;2023-11-21T05:17:37;9.40;99.90
23403;DHT22;11874;48.228;11.684;2023-11-21T05:20:07;9.40;99.90
23403;DHT22;11874;48.228;11.684;2023-11-21T05:22:38;9.30;99.90
23403;DHT22;11874;48.228;11.684;2023-11-21T05:25:07;9.40;99.90
23403;DHT22;11874;48.228;11.684;2023-11-21T05:27:36;9.40;99.90
23403;DHT22;11874;48.228;11.684;2023-11-21T05:30:05;9.30;99.90
23403;DHT22;11874;48.228;11.684;2023-11-21T05:32:36;9.30;99.90
23403;DHT22;11874;48.228;11.684;2023-11-21T05:35:05;9.30;99.90
23403;DHT22;11874;48.228;11.684;2023-11-21T05:37:38;9.40;99.90
23403;DHT22;11874;48.228;11.684;2023-11-21T05:40:07;9.30;99.90
23403;DHT22;11874;48.228;11.684;2023-11-21T05:42:36;9.30;99.90
23403;DHT22;11874;48.228;11.684;2023-11-21T05:45:06;9.30;99.90
23403;DHT22;11874;48.228;11.684;2023-11-21T05:47:38;9.30;99.90
23403;DHT22;11874;48.228;11.684;2023-11-21T05:50:08;9.30;99.90
23403;DHT22;11874;48.228;11.684;2023-11-21T05:52:45;9.30;99.90
23403;DHT22;11874;48.228;11.684;2023-11-21T05:55:13;9.30;99.90
23403;DHT22;11874;48.228;11.684;2023-11-21T05:57:43;9.30;99.90
23403;DHT22;11874;48.228;11.684;2023-11-21T06:00:14;9.20;99.90
23403;DHT22;11874;48.228;11.684;2023-11-21T06:02:47;9.30;99.90
23403;DHT22;11874;48.228;11.684;2023-11-21T06:05:18;9.30;99.90
23403;DHT22;11874;48.228;11.684;2023-11-21T06:07:48;9.30;99.90
23403;DHT22;11874;48.228;11.684;2023-11-21T06:10:17;9.30;99.90
23403;DHT22;11874;48.228;11.684;2023-11-21T06:12:46;9.30;99.90
23403;DHT22;11874;48.228;11.684;2023-11-21T06:15:15;9.30;99.90
23403;DHT22;11874;48.228;11.684;2023-11-21T06:17:46;9.20;99.90
23403;DHT22;11874;48.228;11.684;2023-11-21T06:20:19;9.20;99.90
23403;DHT22;11874;48.228;11.684;2023-11-21T06:22:49;9.20;99.90
23403;DHT22;11874;48.228;11.684;2023-11-21T06:25:18;9.20;99.90
23403;DHT22;11874;48.228;11.684;2023-11-21T06:27:47;9.20;99.90
23403;DHT22;11874;48.228;11.684;2023-11-21T06:30:16;9.20;99.90
23403;DHT22;11874;48.228;11.684;2023-11-21T06:32:46;9.20;99.90
23403;DHT22;11874;48.228;11.684;2023-11-21T06:35:15;9.20;99.90
23403;DHT22;11874;48.228;11.684;2023-11-21T06:37:45;9.20;99.90
23403;DHT22;11874;48.228;11.684;2023-11-21T06:40:19;9.10;99.90
23403;DHT22;11874;48.228;11.684;2023-11-21T06:42:48;9.20;99.90
23403;DHT22;11874;48.228;11.684;2023-11-21T06:45:17;9.20;99.90
23403;DHT22;11874;48.228;11.684;2023-11-21T06:47:47;9.20;99.90
23403;DHT22;11874;48.228;11.684;2023-11-21T06:50:15;9.20;99.90
23403;DHT22;11874;48.228;11.684;2023-11-21T06:52:44;9.20;99.90
23403;DHT22;11874;48.228;11.684;2023-11-21T06:55:12;9.20;99.90
23403;DHT22;11874;48.228;11.684;2023-11-21T06:57:44;9.20;99.90
23403;DHT22;11874;48.228;11.684;2023-11-21T07:00:16;9.20;99.90
23403;DHT22;11874;48.228;11.684;2023-11-21T07:02:45;9.20;99.90
23403;DHT22;11874;48.228;11.684;2023-11-21T07:05:14;9.20;99.90
23403;DHT22;11874;48.228;11.684;2023-11-21T07:07:42;9.20;99.90
23403;DHT22;11874;48.228;11.684;2023-11-21T07:10:20;9.20;99.90
23403;DHT22;11874;48.228;11.684;2023-11-21T07:12:50;9.20;99.90
23403;DHT22;11874;48.228;11.684;2023-11-21T07:15:18;9.10;99.90
23403;DHT22;11874;48.228;11.684;2023-11-21T07:17:46;9.20;99.90
23403;DHT22;11874;48.228;11.684;2023-11-21T07:20:15;9.20;99.90
23403;DHT22;11874;48.228;11.684;2023-11-21T07:22:45;9.20;99.90
23403;DHT22;11874;48.228;11.684;2023-11-21T07:25:13;9.20;99.90
23403;DHT22;11874;48.228;11.684;2023-11-21T07:27:42;9.20;99.90
23403;DHT22;11874;48.228;11.684;2023-11-21T07:30:13;9.20;99.90
23403;DHT22;11874;48.228;11.684;2023-11-21T07:32:41;9.20;99.90
23403;DHT22;11874;48.228;11.684;2023-11-21T07:35:11;9.20;99.90
23403;DHT22;11874;48.228;11.684;2023-11-21T07:37:40;9.30;99.90
23403;DHT22;11874;48.228;11.684;2023-11-21T07:40:10;9.20;99.90
23403;DHT22;11874;48.228;11.684;2023-11-21T07:42:39;9.20;99.90
23403;DHT22;11874;48.228;11.684;2023-11-21T07:45:09;9.20;99.90
23403;DHT22;11874;48.228;11.684;2023-11-21T07:47:39;9.30;99.90
23403;DHT22;11874;48.228;11.684;2023-11-21T07:50:08;9.30;99.90
23403;DHT22;11874;48.228;11.684;2023-11-21T07:52:36;9.30;99.90
23403;DHT22;11874;48.228;11.684;2023-11-21T07:55:05;9.30;99.90
23403;DHT22;11874;48.228;11.684;2023-11-21T07:57:34;9.30;99.90
23403;DHT22;11874;48.228;11.684;2023-11-21T08:00:05;9.30;99.90
23403;DHT22;11874;48.228;11.684;2023-11-21T08:02:36;9.40;99.90
23403;DHT22;11874;48.228;11.684;2023-11-21T08:05:07;9.40;99.90
23403;DHT22;11874;48.228;11.684;2023-11-21T08:07:47;9.40;99.90
23403;DHT22;11874;48.228;11.684;2023-11-21T08:10:15;9.40;99.90
23403;DHT22;11874;48.228;11.684;2023-11-21T08:12:44;9.40;99.90
23403;DHT22;11874;48.228;11.684;2023-11-21T08:15:12;9.40;99.90
23403;DHT22;11874;48.228;11.684;2023-11-21T08:17:41;9.50;99.90
23403;DHT22;11874;48.228;11.684;2023-11-21T08:20:11;9.50;99.90
23403;DHT22;11874;48.228;11.684;2023-11-21T08:22:43;9.50;99.90
23403;DHT22;11874;48.228;11.684;2023-11-21T08:25:15;9.50;99.90
23403;DHT22;11874;48.228;11.684;2023-11-21T08:27:47;9.60;99.90
23403;DHT22;11874;48.228;11.684;2023-11-21T08:30:15;9.60;99.90
23403;DHT22;11874;48.228;11.684;2023-11-21T08:32:46;9.60;99.90
23403;DHT22;11874;48.228;11.684;2023-11-21T08:35:16;9.60;99.90
23403;DHT22;11874;48.228;11.684;2023-11-21T08:37:45;9.60;99.90
23403;DHT22;11874;48.228;11.684;2023-11-21T08:40:14;9.50;99.90
23403;DHT22;11874;48.228;11.684;2023-11-21T08:42:44;9.50;99.90
23403;DHT22;11874;48.228;11.684;2023-11-21T08:45:13;9.50;99.90
23403;DHT22;11874;48.228;11.684;2023-11-21T08:47:41;9.50;99.90
23403;DHT22;11874;48.228;11.684;2023-11-21T08:50:12;9.50;99.90
23403;DHT22;11874;48.228;11.684;2023-11-21T08:52:45;9.50;99.90
23403;DHT22;11874;48.228;11.684;2023-11-21T08:55:13;9.50;99.90
23403;DHT22;11874;48.228;11.684;2023-11-21T08:57:44;9.60;99.90
23403;DHT22;11874;48.228;11.684;2023-11-21T09:00:13;9.60;99.90
23403;DHT22;11874;48.228;11.684;2023-11-21T09:02:44;9.60;99.90
23403;DHT22;11874;48.228;11.684;2023-11-21T09:05:13;9.60;99.90
23403;DHT22;11874;48.228;11.684;2023-11-21T09:07:43;9.60;99.90
23403;DHT22;11874;48.228;11.684;2023-11-21T09:10:13;9.60;99.90
23403;DHT22;11874;48.228;11.684;2023-11-21T09:12:42;9.60;99.90
23403;DHT22;11874;48.228;11.684;2023-11-21T09:15:13;9.70;99.90
23403;DHT22;11874;48.228;11.684;2023-11-21T09:17:42;9.70;99.90
23403;DHT22;11874;48.228;11.684;2023-11-21T09:20:12;9.60;99.90
23403;DHT22;11874;48.228;11.684;2023-11-21T09:22:41;9.60;99.90
23403;DHT22;11874;48.228;11.684;2023-11-21T09:25:13;9.60;99.90
23403;DHT22;11874;48.228;11.684;2023-11-21T09:27:41;9.50;99.90
23403;DHT22;11874;48.228;11.684;2023-11-21T09:30:11;9.50;99.90
23403;DHT22;11874;48.228;11.684;2023-11-21T09:32:41;9.50;99.90
23403;DHT22;11874;48.228;11.684;2023-11-21T09:35:12;9.50;99.90
23403;DHT22;11874;48.228;11.684;2023-11-21T09:37:43;9.50;99.90
23403;DHT22;11874;48.228;11.684;2023-11-21T09:40:21;9.50;99.90
23403;DHT22;11874;48.228;11.684;2023-11-21T09:42:54;9.50;99.90
23403;DHT22;11874;48.228;11.684;2023-11-21T09:45:26;9.50;99.90
23403;DHT22;11874;48.228;11.684;2023-11-21T09:47:56;9.50;99.90
23403;DHT22;11874;48.228;11.684;2023-11-21T09:50:26;9.60;99.90
23403;DHT22;11874;48.228;11.684;2023-11-21T09:52:58;9.60;99.90
23403;DHT22;11874;48.228;11.684;2023-11-21T09:55:34;9.70;99.90
23403;DHT22;11874;48.228;11.684;2023-11-21T09:58:04;9.70;99.90
23403;DHT22;11874;48.228;11.684;2023-11-21T10:00:35;9.80;99.90
23403;DHT22;11874;48.228;11.684;2023-11-21T10:03:03;9.80;99.90
23403;DHT22;11874;48.228;11.684;2023-11-21T10:05:31;9.90;99.90
23403;DHT22;11874;48.228;11.684;2023-11-21T10:08:01;9.90;99.90
23403;DHT22;11874;48.228;11.684;2023-11-21T10:10:32;9.90;99.90
23403;DHT22;11874;48.228;11.684;2023-11-21T10:13:03;9.90;99.90
23403;DHT22;11874;48.228;11.684;2023-11-21T10:15:34;9.90;99.90
23403;DHT22;11874;48.228;11.684;2023-11-21T10:18:03;9.90;99.90
23403;DHT22;11874;48.228;11.684;2023-11-21T10:20:33;9.90;99.90
23403;DHT22;11874;48.228;11.684;2023-11-21T10:23:04;9.90;99.90
23403;DHT22;11874;48.228;11.684;2023-11-21T10:25:36;9.90;99.90
23403;DHT22;11874;48.228;11.684;2023-11-21T10:28:04;9.90;99.90
23403;DHT22;11874;48.228;11.684;2023-11-21T10:30:34;9.90;99.90
23403;DHT22;11874;48.228;11.684;2023-11-21T10:33:04;10.00;99.90
23403;DHT22;11874;48.228;11.684;2023-11-21T10:35:42;10.00;99.90
23403;DHT22;11874;48.228;11.684;2023-11-21T10:38:14;10.00;99.90
23403;DHT22;11874;48.228;11.684;2023-11-21T10:40:44;10.00;99.90
23403;DHT22;11874;48.228;11.684;2023-11-21T10:43:14;10.00;99.90
23403;DHT22;11874;48.228;11.684;2023-11-21T10:45:43;10.00;99.90
23403;DHT22;11874;48.228;11.684;2023-11-21T10:48:14;10.00;99.90
23403;DHT22;11874;48.228;11.684;2023-11-21T10:50:45;10.00;99.90
23403;DHT22;11874;48.228;11.684;2023-11-21T10:53:14;10.00;99.90
23403;DHT22;11874;48.228;11.684;2023-11-21T10:55:44;10.00;99.90
23403;DHT22;11874;48.228;11.684;2023-11-21T10:58:14;10.10;99.90
23403;DHT22;11874;48.228;11.684;2023-11-21T11:00:43;10.10;99.90
23403;DHT22;11874;48.228;11.684;2023-11-21T11:03:13;10.20;99.90
23403;DHT22;11874;48.228;11.684;2023-11-21T11:05:44;10.20;99.90
23403;DHT22;11874;48.228;11.684;2023-11-21T11:08:21;10.30;99.90
23403;DHT22;11874;48.228;11.684;2023-11-21T11:10:56;10.30;99.90
23403;DHT22;11874;48.228;11.684;2023-11-21T11:13:26;10.40;99.90
23403;DHT22;11874;48.228;11.684;2023-11-21T11:15:58;10.40;99.90
23403;DHT22;11874;48.228;11.684;2023-11-21T11:18:29;10.40;99.90
23403;DHT22;11874;48.228;11.684;2023-11-21T11:21:07;10.50;99.90
23403;DHT22;11874;48.228;11.684;2023-11-21T11:23:49;10.40;99.90
23403;DHT22;11874;48.228;11.684;2023-11-21T11:26:31;10.40;99.90
23403;DHT22;11874;48.228;11.684;2023-11-21T11:29:07;10.50;99.90
23403;DHT22;11874;48.228;11.684;2023-11-21T11:31:40;10.40;99.90
23403;DHT22;11874;48.228;11.684;2023-11-21T11:34:20;10.30;99.90
23403;DHT22;11874;48.228;11.684;2023-11-21T11:36:55;10.30;99.90
23403;DHT22;11874;48.228;11.684;2023-11-21T11:39:29;10.30;99.90
23403;DHT22;11874;48.228;11.684;2023-11-21T11:42:02;10.30;99.90
23403;DHT22;11874;48.228;11.684;2023-11-21T11:44:51;10.30;99.90
23403;DHT22;11874;48.228;11.684;2023-11-21T11:47:23;10.40;99.90
23403;DHT22;11874;48.228;11.684;2023-11-21T11:50:08;10.40;99.90
23403;DHT22;11874;48.228;11.684;2023-11-21T11:52:41;10.40;99.90
23403;DHT22;11874;48.228;11.684;2023-11-21T11:55:11;10.50;99.90
23403;DHT22;11874;48.228;11.684;2023-11-21T11:57:42;10.50;99.90
23403;DHT22;11874;48.228;11.684;2023-11-21T12:00:15;10.50;99.90
23403;DHT22;11874;48.228;11.684;2023-11-21T12:02:47;10.50;99.90
23403;DHT22;11874;48.228;11.684;2023-11-21T12:05:16;10.50;99.90
23403;DHT22;11874;48.228;11.684;2023-11-21T12:07:47;10.60;99.90
23403;DHT22;11874;48.228;11.684;2023-11-21T12:10:18;10.50;99.90
23403;DHT22;11874;48.228;11.684;2023-11-21T12:12:48;10.60;99.90
23403;DHT22;11874;48.228;11.684;2023-11-21T12:15:17;10.60;99.90
23403;DHT22;11874;48.228;11.684;2023-11-21T12:17:46;10.50;99.90
23403;DHT22;11874;48.228;11.684;2023-11-21T12:20:18;10.50;99.90
23403;DHT22;11874;48.228;11.684;2023-11-21T12:22:47;10.50;99.90
23403;DHT22;11874;48.228;11.684;2023-11-21T12:25:16;10.50;99.90
23403;DHT22;11874;48.228;11.684;2023-11-21T12:27:48;10.50;99.90
23403;DHT22;11874;48.228;11.684;2023-11-21T12:30:18;10.50;99.90
23403;DHT22;11874;48.228;11.684;2023-11-21T12:32:48;10.50;99.90
23403;DHT22;11874;48.228;11.684;2023-11-21T12:35:18;10.50;99.90
23403;DHT22;11874;48.228;11.684;2023-11-21T12:37:48;10.50;99.90
23403;DHT22;11874;48.228;11.684;2023-11-21T12:40:17;10.60;99.90
23403;DHT22;11874;48.228;11.684;2023-11-21T12:42:51;10.60;99.90
23403;DHT22;11874;48.228;11.684;2023-11-21T12:45:21;10.70;99.90
23403;DHT22;11874;48.228;11.684;2023-11-21T12:47:51;10.80;99.90
23403;DHT22;11874;48.228;11.684;2023-11-21T12:50:19;10.90;99.90
23403;DHT22;11874;48.228;11.684;2023-11-21T12:52:51;10.90;99.90
23403;DHT22;11874;48.228;11.684;2023-11-21T12:55:21;10.90;99.90
23403;DHT22;11874;48.228;11.684;2023-11-21T12:57:53;10.90;99.90
23403;DHT22;11874;48.228;11.684;2023-11-21T13:00:29;10.80;99.90
23403;DHT22;11874;48.228;11.684;2023-11-21T13:02:59;10.80;99.90
23403;DHT22;11874;48.228;11.684;2023-11-21T13:05:29;10.80;99.90
23403;DHT22;11874;48.228;11.684;2023-11-21T13:07:58;10.80;99.90
23403;DHT22;11874;48.228;11.684;2023-11-21T13:10:30;10.70;99.90
23403;DHT22;11874;48.228;11.684;2023-11-21T13:13:01;10.70;99.90
23403;DHT22;11874;48.228;11.684;2023-11-21T13:15:32;10.70;99.90
23403;DHT22;11874;48.228;11.684;2023-11-21T13:18:01;10.70;99.90
23403;DHT22;11874;48.228;11.684;2023-11-21T13:20:30;10.70;99.90
23403;DHT22;11874;48.228;11.684;2023-11-21T13:22:59;10.70;99.90
23403;DHT22;11874;48.228;11.684;2023-11-21T13:25:28;10.70;99.90
23403;DHT22;11874;48.228;11.684;2023-11-21T13:28:00;10.70;99.90
23403;DHT22;11874;48.228;11.684;2023-11-21T13:30:29;10.70;99.90
23403;DHT22;11874;48.228;11.684;2023-11-21T13:33:00;10.70;99.90
23403;DHT22;11874;48.228;11.684;2023-11-21T13:35:29;10.70;99.90
23403;DHT22;11874;48.228;11.684;2023-11-21T13:38:04;10.60;99.90
23403;DHT22;11874;48.228;11.684;2023-11-21T13:40:34;10.70;99.90
23403;DHT22;11874;48.228;11.684;2023-11-21T13:43:12;10.60;99.90
23403;DHT22;11874;48.228;11.684;2023-11-21T13:45:40;10.60;99.90
23403;DHT22;11874;48.228;11.684;2023-11-21T13:48:12;10.60;99.90
23403;DHT22;11874;48.228;11.684;2023-11-21T13:50:41;10.60;99.90
23403;DHT22;11874;48.228;11.684;2023-11-21T13:53:15;10.50;99.90
23403;DHT22;11874;48.228;11.684;2023-11-21T13:55:49;10.50;99.90
23403;DHT22;11874;48.228;11.684;2023-11-21T13:58:19;10.40;99.90
23403;DHT22;11874;48.228;11.684;2023-11-21T14:00:51;10.30;99.90
23403;DHT22;11874;48.228;11.684;2023-11-21T14:03:23;10.30;99.90
23403;DHT22;11874;48.228;11.684;2023-11-21T14:05:59;10.20;99.90
23403;DHT22;11874;48.228;11.684;2023-11-21T14:08:35;10.30;99.90
23403;DHT22;11874;48.228;11.684;2023-11-21T14:11:03;10.20;99.90
23403;DHT22;11874;48.228;11.684;2023-11-21T14:13:35;10.20;99.90
23403;DHT22;11874;48.228;11.684;2023-11-21T14:16:05;10.20;99.90
23403;DHT22;11874;48.228;11.684;2023-11-21T14:18:34;10.20;99.90
23403;DHT22;11874;48.228;11.684;2023-11-21T14:21:06;10.10;99.90
23403;DHT22;11874;48.228;11.684;2023-11-21T14:23:35;10.10;99.90
23403;DHT22;11874;48.228;11.684;2023-11-21T14:26:05;10.20;99.90
23403;DHT22;11874;48.228;11.684;2023-11-21T14:28:35;10.10;99.90
23403;DHT22;11874;48.228;11.684;2023-11-21T14:31:05;10.10;99.90
23403;DHT22;11874;48.228;11.684;2023-11-21T14:33:34;10.10;99.90
23403;DHT22;11874;48.228;11.684;2023-11-21T14:36:03;10.10;99.90
23403;DHT22;11874;48.228;11.684;2023-11-21T14:38:31;10.10;99.90
23403;DHT22;11874;48.228;11.684;2023-11-21T14:40:59;10.10;99.90
23403;DHT22;11874;48.228;11.684;2023-11-21T14:43:27;10.10;99.90
23403;DHT22;11874;48.228;11.684;2023-11-21T14:46:02;10.00;99.90
23403;DHT22;11874;48.228;11.684;2023-11-21T14:48:33;10.10;99.90
23403;DHT22;11874;48.228;11.684;2023-11-21T14:51:09;10.10;99.90
23403;DHT22;11874;48.228;11.684;2023-11-21T14:53:57;10.10;99.90
23403;DHT22;11874;48.228;11.684;2023-11-21T14:56:33;10.10;99.90
23403;DHT22;11874;48.228;11.684;2023-11-21T14:59:02;10.00;99.90
23403;DHT22;11874;48.228;11.684;2023-11-21T15:01:36;10.00;99.90
23403;DHT22;11874;48.228;11.684;2023-11-21T15:04:13;10.00;99.90
23403;DHT22;11874;48.228;11.684;2023-11-21T15:06:51;10.00;99.90
23403;DHT22;11874;48.228;11.684;2023-11-21T15:09:23;10.00;99.90
23403;DHT22;11874;48.228;11.684;2023-11-21T15:12:03;10.00;99.90
23403;DHT22;11874;48.228;11.684;2023-11-21T15:14:45;10.10;99.90
23403;DHT22;11874;48.228;11.684;2023-11-21T15:17:16;10.00;99.90
23403;DHT22;11874;48.228;11.684;2023-11-21T15:19:49;10.00;99.90
23403;DHT22;11874;48.228;11.684;2023-11-21T15:22:18;10.00;99.90
23403;DHT22;11874;48.228;11.684;2023-11-21T15:24:49;10.00;99.90
23403;DHT22;11874;48.228;11.684;2023-11-21T15:27:21;10.10;99.90
23403;DHT22;11874;48.228;11.684;2023-11-21T15:29:49;10.10;99.90
23403;DHT22;11874;48.228;11.684;2023-11-21T15:32:19;10.10;99.90
23403;DHT22;11874;48.228;11.684;2023-11-21T15:34:48;10.00;99.90
23403;DHT22;11874;48.228;11.684;2023-11-21T15:37:28;10.10;99.90
23403;DHT22;11874;48.228;11.684;2023-11-21T15:39:56;10.10;99.90
23403;DHT22;11874;48.228;11.684;2023-11-21T15:42:24;10.10;99.90
23403;DHT22;11874;48.228;11.684;2023-11-21T15:44:52;10.10;99.90